createdAt,value
2019-05-22T00:02:35.459Z,18.47
2019-05-22T00:05:14.406Z,21.90
2019-05-22T00:07:45.353Z,21.23
2019-05-22T00:10:19.062Z,20.60
2019-05-22T00:12:49.797Z,24.95
2019-05-22T00:15:20.974Z,23.83
2019-05-22T00:17:51.563Z,27.23
2019-05-22T00:20:23.307Z,25.52
2019-05-22T00:22:53.955Z,19.40
2019-05-22T00:25:26.512Z,24.32
2019-05-22T00:27:56.037Z,20.17
2019-05-22T00:30:27.258Z,22.70
2019-05-22T00:32:58.101Z,23.23
2019-05-22T00:35:29.086Z,24.53
2019-05-22T00:38:01.429Z,24.57
2019-05-22T00:40:35.014Z,26.00
2019-05-22T00:43:13.388Z,28.53
2019-05-22T00:45:37.770Z,27.20
2019-05-22T00:48:07.718Z,24.60
2019-05-22T00:51:00.711Z,19.53
2019-05-22T00:53:46.139Z,25.40
2019-05-22T00:56:34.487Z,23.33
2019-05-22T00:59:09.450Z,21.80
2019-05-22T01:01:45.741Z,20.97
2019-05-22T01:04:16.972Z,22.50
2019-05-22T01:06:48.575Z,25.85
2019-05-22T01:09:25.309Z,24.43
2019-05-22T01:12:06.023Z,20.50
2019-05-22T01:14:42.934Z,27.95
2019-05-22T01:17:10.434Z,29.30
2019-05-22T01:19:40.729Z,21.97
2019-05-22T01:22:11.198Z,25.13
2019-05-22T01:24:41.504Z,20.83
2019-05-22T01:27:12.681Z,30.40
2019-05-22T01:29:43.685Z,27.70
2019-05-22T01:32:24.833Z,19.27
2019-05-22T01:34:55.016Z,20.25
2019-05-22T01:37:27.686Z,26.63
2019-05-22T01:40:07.475Z,22.93
2019-05-22T01:42:41.717Z,21.90
2019-05-22T01:45:13.757Z,23.27
2019-05-22T01:47:57.316Z,21.17
2019-05-22T01:50:41.690Z,28.07
2019-05-22T01:53:13.192Z,19.37
2019-05-22T01:55:43.599Z,20.20
2019-05-22T01:58:13.222Z,19.27
2019-05-22T02:00:44.101Z,20.77
2019-05-22T02:03:14.544Z,31.07
2019-05-22T02:05:44.310Z,25.05
2019-05-22T02:08:14.208Z,23.75
2019-05-22T02:10:47.051Z,23.10
2019-05-22T02:13:21.475Z,21.20
2019-05-22T02:15:51.343Z,21.43
2019-05-22T02:18:22.981Z,21.17
2019-05-22T02:20:52.585Z,25.97
2019-05-22T02:23:23.314Z,24.20
2019-05-22T02:25:52.937Z,22.93
2019-05-22T02:28:22.680Z,19.87
2019-05-22T02:30:53.842Z,19.30
2019-05-22T02:33:24.640Z,27.53
2019-05-22T02:35:56.031Z,18.37
2019-05-22T02:38:26.651Z,34.63
2019-05-22T02:40:57.191Z,22.50
2019-05-22T02:43:27.796Z,22.55
2019-05-22T02:45:57.727Z,20.70
2019-05-22T02:48:27.698Z,28.00
2019-05-22T02:50:58.026Z,25.30
2019-05-22T02:53:29.647Z,21.40
2019-05-22T02:55:59.696Z,23.10
2019-05-22T02:58:31.373Z,24.37
2019-05-22T03:01:03.281Z,23.83
2019-05-22T03:03:33.719Z,21.73
2019-05-22T03:06:06.531Z,27.27
2019-05-22T03:09:15.705Z,34.00
2019-05-22T03:11:49.834Z,23.97
2019-05-22T03:14:20.197Z,28.13
2019-05-22T03:16:52.309Z,20.63
2019-05-22T03:19:32.231Z,28.80
2019-05-22T03:22:04.702Z,22.83
2019-05-22T03:24:35.019Z,27.87
2019-05-22T03:27:05.124Z,20.97
2019-05-22T03:29:51.318Z,25.37
2019-05-22T03:32:21.398Z,27.48
2019-05-22T03:34:53.109Z,22.17
2019-05-22T03:37:22.661Z,23.47
2019-05-22T03:39:52.330Z,23.43
2019-05-22T03:42:22.803Z,24.13
2019-05-22T03:44:53.174Z,23.37
2019-05-22T03:47:25.410Z,29.70
2019-05-22T03:49:55.099Z,26.93
2019-05-22T03:52:25.859Z,33.70
2019-05-22T03:54:55.929Z,25.63
2019-05-22T03:57:26.415Z,27.90
2019-05-22T03:59:56.079Z,23.80
2019-05-22T04:02:27.052Z,20.10
2019-05-22T04:04:56.663Z,24.70
2019-05-22T04:07:26.726Z,27.63
2019-05-22T04:09:57.438Z,24.80
2019-05-22T04:12:27.738Z,22.67
2019-05-22T04:14:58.123Z,24.50
2019-05-22T04:17:28.499Z,22.50
2019-05-22T04:19:57.982Z,25.40
2019-05-22T04:22:27.767Z,21.07
2019-05-22T04:24:57.435Z,23.23
2019-05-22T04:27:27.867Z,18.75
2019-05-22T04:29:58.054Z,17.80
2019-05-22T04:32:30.418Z,17.67
2019-05-22T04:35:00.000Z,19.27
2019-05-22T04:37:30.878Z,19.00
2019-05-22T04:40:48.666Z,23.80
2019-05-22T04:43:21.218Z,16.03
2019-05-22T04:45:51.715Z,13.93
2019-05-22T04:48:21.937Z,21.63
2019-05-22T04:50:51.906Z,21.83
2019-05-22T04:53:21.611Z,20.20
2019-05-22T04:55:52.315Z,18.50
2019-05-22T04:58:29.725Z,18.90
2019-05-22T05:00:59.281Z,24.60
2019-05-22T05:03:30.058Z,18.40
2019-05-22T05:06:00.150Z,16.30
2019-05-22T05:08:30.640Z,16.20
2019-05-22T05:11:02.785Z,20.82
2019-05-22T05:13:32.600Z,18.62
2019-05-22T05:16:02.728Z,13.77
2019-05-22T05:18:32.531Z,17.97
2019-05-22T05:21:02.991Z,18.25
2019-05-22T05:23:32.505Z,19.60
2019-05-22T05:26:02.381Z,18.10
2019-05-22T05:28:32.562Z,18.90
2019-05-22T05:31:03.244Z,16.43
2019-05-22T05:33:37.275Z,19.15
2019-05-22T05:36:07.650Z,15.43
2019-05-22T05:38:39.222Z,15.73
2019-05-22T05:41:08.963Z,18.30
2019-05-22T05:43:38.795Z,17.80
2019-05-22T05:46:08.357Z,15.10
2019-05-22T05:48:38.526Z,24.10
2019-05-22T05:51:46.428Z,22.80
2019-05-22T05:54:18.171Z,19.23
2019-05-22T05:56:48.511Z,19.07
2019-05-22T05:59:18.826Z,18.42
2019-05-22T06:01:53.067Z,21.33
2019-05-22T06:04:35.341Z,13.93
2019-05-22T06:07:17.508Z,16.17
2019-05-22T06:09:55.953Z,11.68
2019-05-22T06:12:25.477Z,13.23
2019-05-22T06:14:55.354Z,13.93
2019-05-22T06:18:02.100Z,10.57
2019-05-22T06:20:32.361Z,11.63
2019-05-22T06:23:41.123Z,10.90
2019-05-22T06:26:15.231Z,16.80
2019-05-22T06:28:44.751Z,11.12
2019-05-22T06:31:21.842Z,13.37
2019-05-22T06:33:51.479Z,12.20
2019-05-22T06:36:21.392Z,10.80
2019-05-22T06:39:03.067Z,11.00
2019-05-22T06:41:38.444Z,8.10
2019-05-22T06:44:40.636Z,11.43
2019-05-22T06:47:17.406Z,11.60
2019-05-22T06:49:52.794Z,9.40
2019-05-22T06:52:23.168Z,12.90
2019-05-22T06:54:53.120Z,10.13
2019-05-22T06:57:25.072Z,10.23
2019-05-22T07:00:12.406Z,9.97
2019-05-22T07:02:30.510Z,10.63
2019-05-22T07:05:01.926Z,12.20
2019-05-22T07:07:32.847Z,10.27
2019-05-22T07:10:03.036Z,9.37
2019-05-22T07:12:35.933Z,12.43
2019-05-22T07:15:45.381Z,12.18
2019-05-22T07:18:17.698Z,11.20
2019-05-22T07:20:48.639Z,11.70
2019-05-22T07:23:25.356Z,11.10
2019-05-22T07:25:55.068Z,15.77
2019-05-22T07:28:26.216Z,16.40
2019-05-22T07:30:55.900Z,20.40
2019-05-22T07:33:25.782Z,16.70
2019-05-22T07:36:08.341Z,16.23
2019-05-22T07:38:26.887Z,17.57
2019-05-22T07:40:56.583Z,20.75
2019-05-22T07:43:26.230Z,21.83
2019-05-22T07:45:56.988Z,20.50
2019-05-22T07:48:27.920Z,15.23
2019-05-22T07:50:58.701Z,18.77
2019-05-22T07:53:29.187Z,14.98
2019-05-22T07:56:00.569Z,11.70
2019-05-22T07:58:31.288Z,20.03
2019-05-22T08:01:03.392Z,13.93
2019-05-22T08:03:32.937Z,15.83
2019-05-22T08:06:02.725Z,13.40
2019-05-22T08:08:35.013Z,13.27
2019-05-22T08:11:05.565Z,15.50
2019-05-22T08:13:35.474Z,16.60
2019-05-22T08:16:05.049Z,17.00
2019-05-22T08:18:38.810Z,12.07
2019-05-22T08:21:08.809Z,16.60
2019-05-22T08:23:38.806Z,13.83
2019-05-22T08:26:09.503Z,13.27
2019-05-22T08:28:39.680Z,13.60
2019-05-22T08:31:10.820Z,15.90
2019-05-22T08:33:40.392Z,13.67
2019-05-22T08:36:10.542Z,13.22
2019-05-22T08:38:40.147Z,13.90
2019-05-22T08:41:09.881Z,11.43
2019-05-22T08:44:11.536Z,12.90
2019-05-22T08:46:12.803Z,16.10
2019-05-22T08:48:48.156Z,11.80
2019-05-22T08:51:14.174Z,9.90
2019-05-22T08:53:47.901Z,12.27
2019-05-22T08:56:15.003Z,11.23
2019-05-22T08:58:44.863Z,9.70
2019-05-22T09:01:15.006Z,10.33
2019-05-22T09:03:45.306Z,12.27
2019-05-22T09:06:14.806Z,10.87
2019-05-22T09:08:44.329Z,15.40
2019-05-22T09:11:14.796Z,11.40
2019-05-22T09:13:44.310Z,16.60
2019-05-22T09:16:14.459Z,9.37
2019-05-22T09:18:44.401Z,11.00
2019-05-22T09:21:14.203Z,7.27
2019-05-22T09:23:44.301Z,7.00
2019-05-22T09:26:14.341Z,7.53
2019-05-22T09:28:44.300Z,6.10
2019-05-22T09:31:13.866Z,10.87
2019-05-22T09:33:43.454Z,6.83
2019-05-22T09:36:13.158Z,10.70
2019-05-22T09:38:42.871Z,10.23
2019-05-22T09:41:12.497Z,6.13
2019-05-22T09:43:42.176Z,7.23
2019-05-22T09:46:11.950Z,9.03
2019-05-22T09:48:41.614Z,6.50
2019-05-22T09:51:11.445Z,9.48
2019-05-22T09:53:41.596Z,8.80
2019-05-22T09:56:11.486Z,7.70
2019-05-22T09:58:41.131Z,9.77
2019-05-22T10:01:12.132Z,9.30
2019-05-22T10:03:43.045Z,11.77
2019-05-22T10:06:12.625Z,8.00
2019-05-22T10:08:42.115Z,7.35
2019-05-22T10:11:11.861Z,11.63
2019-05-22T10:13:41.552Z,9.37
2019-05-22T10:16:11.292Z,8.63
2019-05-22T10:18:41.655Z,8.10
2019-05-22T10:21:11.331Z,4.92
2019-05-22T10:23:40.781Z,8.63
2019-05-22T10:26:10.937Z,6.20
2019-05-22T10:28:40.944Z,11.60
2019-05-22T10:31:11.874Z,7.90
2019-05-22T10:33:41.881Z,5.73
2019-05-22T10:36:11.560Z,8.23
2019-05-22T10:38:41.373Z,7.17
2019-05-22T10:41:11.194Z,8.70
2019-05-22T10:43:40.749Z,8.77
2019-05-22T10:46:10.893Z,8.90
2019-05-22T10:48:41.329Z,9.00
2019-05-22T10:51:11.513Z,6.37
2019-05-22T10:53:41.332Z,7.17
2019-05-22T10:56:11.493Z,7.60
2019-05-22T10:58:41.421Z,9.25
2019-05-22T11:01:11.116Z,11.00
2019-05-22T11:03:40.641Z,7.90
2019-05-22T11:06:10.314Z,6.63
2019-05-22T11:08:40.852Z,6.30
2019-05-22T11:11:10.905Z,7.47
2019-05-22T11:13:40.425Z,7.97
2019-05-22T11:16:10.211Z,5.53
2019-05-22T11:18:39.799Z,9.93
2019-05-22T11:21:09.383Z,9.05
2019-05-22T11:23:51.560Z,8.60
2019-05-22T11:26:10.496Z,9.10
2019-05-22T11:28:40.134Z,8.03
2019-05-22T11:31:10.834Z,9.27
2019-05-22T11:33:41.477Z,6.62
2019-05-22T11:36:11.479Z,11.00
2019-05-22T11:38:41.075Z,6.73
2019-05-22T11:41:11.143Z,8.80
2019-05-22T11:43:40.679Z,6.80
2019-05-22T11:46:10.156Z,4.67
2019-05-22T11:48:39.801Z,7.00
2019-05-22T11:51:09.612Z,7.30
2019-05-22T11:53:39.327Z,10.40
2019-05-22T11:56:08.850Z,9.20
2019-05-22T11:58:38.813Z,6.17
2019-05-22T12:01:08.801Z,8.20
2019-05-22T12:03:38.387Z,8.37
2019-05-22T12:06:08.878Z,6.93
2019-05-22T12:08:38.662Z,7.60
2019-05-22T12:11:09.381Z,7.90
2019-05-22T12:13:38.997Z,20.00
2019-05-22T12:16:09.377Z,11.68
2019-05-22T12:18:39.112Z,7.17
2019-05-22T12:21:08.954Z,5.30
2019-05-22T12:23:38.473Z,5.70
2019-05-22T12:26:09.262Z,4.83
2019-05-22T12:28:38.932Z,8.63
2019-05-22T12:31:09.031Z,5.90
2019-05-22T12:33:39.680Z,7.10
2019-05-22T12:36:13.688Z,6.43
2019-05-22T12:38:44.590Z,5.60
2019-05-22T12:41:15.252Z,8.28
2019-05-22T12:43:45.262Z,6.27
2019-05-22T12:46:15.034Z,8.40
2019-05-22T12:48:45.428Z,6.63
2019-05-22T12:51:15.320Z,6.20
2019-05-22T12:53:44.892Z,7.87
2019-05-22T12:56:14.754Z,7.70
2019-05-22T12:58:45.314Z,8.93
2019-05-22T13:01:15.328Z,5.93
2019-05-22T13:03:44.894Z,7.53
2019-05-22T13:06:14.580Z,5.83
2019-05-22T13:08:45.062Z,10.55
2019-05-22T13:11:15.030Z,10.37
2019-05-22T13:13:44.880Z,9.03
2019-05-22T13:16:14.526Z,10.77
2019-05-22T13:18:45.561Z,15.85
2019-05-22T13:21:18.603Z,13.03
2019-05-22T13:23:49.529Z,7.17
2019-05-22T13:26:19.203Z,10.17
2019-05-22T13:28:48.949Z,8.17
2019-05-22T13:31:19.364Z,8.20
2019-05-22T13:33:50.515Z,9.53
2019-05-22T13:36:21.020Z,7.43
2019-05-22T13:38:50.504Z,7.10
2019-05-22T13:41:20.464Z,5.63
2019-05-22T13:43:50.518Z,6.00
2019-05-22T13:46:20.034Z,5.33
2019-05-22T13:48:49.692Z,6.20
2019-05-22T13:51:19.368Z,8.23
2019-05-22T13:53:49.383Z,5.42
2019-05-22T13:56:19.063Z,7.03
2019-05-22T13:58:48.777Z,3.87
2019-05-22T14:01:18.863Z,6.30
2019-05-22T14:03:48.575Z,5.23
2019-05-22T14:06:18.174Z,5.03
2019-05-22T14:08:47.876Z,4.10
2019-05-22T14:11:17.549Z,4.73
2019-05-22T14:13:47.313Z,8.80
2019-05-22T14:16:17.695Z,5.70
2019-05-22T14:18:47.230Z,9.43
2019-05-22T14:21:16.880Z,5.47
2019-05-22T14:23:46.537Z,5.40
2019-05-22T14:26:16.303Z,7.63
2019-05-22T14:28:45.818Z,4.83
2019-05-22T14:31:15.310Z,8.43
2019-05-22T14:33:44.986Z,4.90
2019-05-22T14:36:14.735Z,3.87
2019-05-22T14:38:44.530Z,7.93
2019-05-22T14:41:13.998Z,8.38
2019-05-22T14:43:44.605Z,7.83
2019-05-22T14:46:14.189Z,4.60
2019-05-22T14:48:43.729Z,5.13
2019-05-22T14:51:13.215Z,5.83
2019-05-22T14:53:43.256Z,4.67
2019-05-22T14:56:12.967Z,4.43
2019-05-22T14:58:42.651Z,5.20
2019-05-22T15:01:13.033Z,5.65
2019-05-22T15:03:42.623Z,5.80
2019-05-22T15:06:12.613Z,4.90
2019-05-22T15:08:42.312Z,5.80
2019-05-22T15:11:12.508Z,4.60
2019-05-22T15:13:43.045Z,4.00
2019-05-22T15:16:13.442Z,3.95
2019-05-22T15:18:43.185Z,4.37
2019-05-22T15:21:14.825Z,4.80
2019-05-22T15:23:44.775Z,5.30
2019-05-22T15:26:14.385Z,4.33
2019-05-22T15:28:44.182Z,4.00
2019-05-22T15:31:14.625Z,3.58
2019-05-22T15:33:44.584Z,3.60
2019-05-22T15:36:16.021Z,9.50
2019-05-22T15:38:46.048Z,4.20
2019-05-22T15:41:15.561Z,5.03
2019-05-22T15:43:52.164Z,4.57
2019-05-22T15:46:20.053Z,5.13
2019-05-22T15:48:51.499Z,5.35
2019-05-22T15:51:24.152Z,2.50
2019-05-22T15:53:56.604Z,4.50
2019-05-22T15:56:28.156Z,3.10
2019-05-22T15:58:59.382Z,3.30
2019-05-22T16:01:30.226Z,8.10
2019-05-22T16:04:00.222Z,2.53
2019-05-22T16:06:31.190Z,3.10
2019-05-22T16:09:04.055Z,4.73
2019-05-22T16:11:34.139Z,3.25
2019-05-22T16:14:05.916Z,4.17
2019-05-22T16:16:37.325Z,3.75
2019-05-22T16:19:07.479Z,3.30
2019-05-22T16:21:40.383Z,6.53
2019-05-22T16:24:11.314Z,3.23
2019-05-22T16:26:41.771Z,2.90
2019-05-22T16:29:12.596Z,3.10
2019-05-22T16:31:43.011Z,2.53
2019-05-22T16:34:14.795Z,2.50
2019-05-22T16:36:45.487Z,3.63
2019-05-22T16:39:15.565Z,2.85
2019-05-22T16:41:44.650Z,4.10
2019-05-22T16:44:14.946Z,2.77
2019-05-22T16:46:44.981Z,2.40
2019-05-22T16:49:14.906Z,2.87
2019-05-22T16:51:45.636Z,3.75
2019-05-22T16:54:20.318Z,3.30
2019-05-22T16:56:47.642Z,2.83
2019-05-22T16:59:18.688Z,4.53
2019-05-22T17:01:58.493Z,2.20
2019-05-22T17:04:19.625Z,4.03
2019-05-22T17:06:49.125Z,2.27
2019-05-22T17:09:19.358Z,2.40
2019-05-22T17:11:48.940Z,3.10
2019-05-22T17:14:18.920Z,3.37
2019-05-22T17:16:50.768Z,3.60
2019-05-22T17:19:27.118Z,2.57
2019-05-22T17:21:51.807Z,3.20
2019-05-22T17:24:22.559Z,3.40
2019-05-22T17:26:53.198Z,2.20
2019-05-22T17:29:22.879Z,5.90
2019-05-22T17:31:53.146Z,4.40
2019-05-22T17:34:32.169Z,3.57
2019-05-22T17:37:08.143Z,3.60
2019-05-22T17:39:40.983Z,3.07
2019-05-22T17:42:13.756Z,7.60
2019-05-22T17:44:49.496Z,2.93
2019-05-22T17:47:23.764Z,3.13
2019-05-22T17:49:54.414Z,3.23
2019-05-22T17:52:25.832Z,2.77
2019-05-22T17:54:55.784Z,2.90
2019-05-22T17:57:25.369Z,3.27
2019-05-22T17:59:55.700Z,3.23
2019-05-22T18:02:29.770Z,3.63
2019-05-22T18:04:59.252Z,5.80
2019-05-22T18:07:29.254Z,2.80
2019-05-22T18:09:58.914Z,3.30
2019-05-22T18:12:28.494Z,2.70
2019-05-22T18:14:58.062Z,4.63
2019-05-22T18:17:28.025Z,4.80
2019-05-22T18:19:57.528Z,3.63
2019-05-22T18:22:27.154Z,3.60
2019-05-22T18:24:56.731Z,2.40
2019-05-22T18:27:26.427Z,3.70
2019-05-22T18:29:56.003Z,2.93
2019-05-22T18:32:25.529Z,3.13
2019-05-22T18:34:55.104Z,3.67
2019-05-22T18:37:24.667Z,4.60
2019-05-22T18:39:54.292Z,3.17
2019-05-22T18:42:24.045Z,3.00
2019-05-22T18:44:53.632Z,3.05
2019-05-22T18:47:23.832Z,3.10
2019-05-22T18:49:53.837Z,3.30
2019-05-22T18:52:38.244Z,3.03
2019-05-22T18:54:54.624Z,7.33
2019-05-22T18:57:24.439Z,3.13
2019-05-22T19:00:00.482Z,4.43
2019-05-22T19:02:25.291Z,6.67
2019-05-22T19:04:54.984Z,3.10
2019-05-22T19:07:24.697Z,3.00
2019-05-22T19:09:54.184Z,3.30
2019-05-22T19:12:23.917Z,3.20
2019-05-22T19:14:53.418Z,3.03
2019-05-22T19:17:23.551Z,2.50
2019-05-22T19:19:53.174Z,3.07
2019-05-22T19:22:22.640Z,2.23
2019-05-22T19:24:52.249Z,4.50
2019-05-22T19:27:21.854Z,3.33
2019-05-22T19:29:52.309Z,2.40
2019-05-22T19:32:21.984Z,2.43
2019-05-22T19:34:51.510Z,3.23
2019-05-22T19:37:22.047Z,3.23
2019-05-22T19:39:51.542Z,2.97
2019-05-22T19:42:21.610Z,3.47
2019-05-22T19:44:51.520Z,4.35
2019-05-22T19:47:21.645Z,4.77
2019-05-22T19:49:51.145Z,4.30
2019-05-22T19:52:22.594Z,3.33
2019-05-22T19:54:51.953Z,4.60
2019-05-22T19:57:22.194Z,3.77
2019-05-22T19:59:52.333Z,3.93
2019-05-22T20:02:22.986Z,7.63
2019-05-22T20:04:53.115Z,4.37
2019-05-22T20:07:23.409Z,3.90
2019-05-22T20:09:53.553Z,3.43
2019-05-22T20:12:25.033Z,3.47
2019-05-22T20:14:55.101Z,3.40
2019-05-22T20:17:24.787Z,5.83
2019-05-22T20:19:55.383Z,5.33
2019-05-22T20:22:25.958Z,3.73
2019-05-22T20:24:56.601Z,4.03
2019-05-22T20:27:27.015Z,4.20
2019-05-22T20:29:56.714Z,3.53
2019-05-22T20:32:26.359Z,3.67
2019-05-22T20:34:56.307Z,3.37
2019-05-22T20:37:25.872Z,5.53
2019-05-22T20:39:55.377Z,3.93
2019-05-22T20:42:24.977Z,3.77
2019-05-22T20:44:54.592Z,3.53
2019-05-22T20:47:25.313Z,3.43
2019-05-22T20:49:55.468Z,3.73
2019-05-22T20:52:27.030Z,3.23
2019-05-22T20:54:58.276Z,3.30
2019-05-22T20:57:28.229Z,3.47
2019-05-22T20:59:59.336Z,3.42
2019-05-22T21:02:29.834Z,3.63
2019-05-22T21:04:59.419Z,3.73
2019-05-22T21:07:33.808Z,4.20
2019-05-22T21:10:05.323Z,3.58
2019-05-22T21:12:36.345Z,3.80
2019-05-22T21:15:06.610Z,3.40
2019-05-22T21:17:37.576Z,4.10
2019-05-22T21:20:09.008Z,3.50
2019-05-22T21:22:39.621Z,5.83
2019-05-22T21:25:09.541Z,6.83
2019-05-22T21:27:39.306Z,5.53
2019-05-22T21:30:10.230Z,4.57
2019-05-22T21:32:56.662Z,3.70
2019-05-22T21:35:27.160Z,3.50
2019-05-22T21:37:58.421Z,3.17
2019-05-22T21:40:37.785Z,7.33
2019-05-22T21:43:07.821Z,5.33
2019-05-22T21:45:37.350Z,5.23
2019-05-22T21:48:08.595Z,4.20
2019-05-22T21:50:38.777Z,4.20
2019-05-22T21:53:12.499Z,3.65
2019-05-22T21:55:45.508Z,6.43
2019-05-22T21:58:14.427Z,4.10
2019-05-22T22:01:06.542Z,6.70
2019-05-22T22:03:40.143Z,4.27
2019-05-22T22:06:09.753Z,3.70
2019-05-22T22:08:39.352Z,4.63
2019-05-22T22:11:10.293Z,3.87
2019-05-22T22:13:39.775Z,4.08
2019-05-22T22:16:09.828Z,4.00
2019-05-22T22:18:39.923Z,4.80
2019-05-22T22:21:09.623Z,4.60
2019-05-22T22:23:40.644Z,5.73
2019-05-22T22:26:24.785Z,4.35
2019-05-22T22:28:41.737Z,6.10
2019-05-22T22:31:14.432Z,5.93
2019-05-22T22:33:47.785Z,4.10
2019-05-22T22:36:17.794Z,5.30
2019-05-22T22:38:48.683Z,3.67
2019-05-22T22:41:20.051Z,5.35
2019-05-22T22:43:49.881Z,4.33
2019-05-22T22:46:30.341Z,3.93
2019-05-22T22:49:01.794Z,3.70
2019-05-22T22:51:31.903Z,7.47
2019-05-22T22:54:03.996Z,4.12
2019-05-22T22:56:34.110Z,5.08
2019-05-22T22:59:06.030Z,5.40
2019-05-22T23:01:35.755Z,6.25
2019-05-22T23:04:06.283Z,4.47
2019-05-22T23:06:36.961Z,4.27
2019-05-22T23:09:10.240Z,6.33
2019-05-22T23:11:41.647Z,4.17
2019-05-22T23:14:11.297Z,5.50
2019-05-22T23:16:42.473Z,4.30
2019-05-22T23:19:40.670Z,5.27
2019-05-22T23:22:25.355Z,4.03
2019-05-22T23:24:55.985Z,4.07
2019-05-22T23:27:27.220Z,4.00
2019-05-22T23:29:56.917Z,5.90
2019-05-22T23:32:27.024Z,9.43
2019-05-22T23:34:57.703Z,4.47
2019-05-22T23:37:27.799Z,7.80
2019-05-22T23:39:58.006Z,4.80
2019-05-22T23:42:32.918Z,4.20
2019-05-22T23:45:04.557Z,7.13
2019-05-22T23:47:40.192Z,7.03
2019-05-22T23:50:10.127Z,3.20
2019-05-22T23:52:39.717Z,2.67
2019-05-22T23:55:10.256Z,4.77
2019-05-22T23:57:40.337Z,4.70
